createdAt,value
2018-04-13T00:00:26.788Z,75.50
2018-04-13T00:02:53.065Z,75.70
2018-04-13T00:05:19.329Z,75.90
2018-04-13T00:07:46.064Z,76.20
2018-04-13T00:10:12.323Z,76.40
2018-04-13T00:12:39.323Z,76.80
2018-04-13T00:15:05.533Z,76.80
2018-04-13T00:17:31.780Z,76.70
2018-04-13T00:19:58.035Z,76.80
2018-04-13T00:22:24.241Z,77.10
2018-04-13T00:24:50.460Z,77.10
2018-04-13T00:27:16.744Z,77.20
2018-04-13T00:29:42.983Z,77.50
2018-04-13T00:32:09.949Z,78.00
2018-04-13T00:34:36.171Z,78.00
2018-04-13T00:37:02.380Z,78.00
2018-04-13T00:39:29.338Z,78.10
2018-04-13T00:41:55.563Z,78.00
2018-04-13T00:44:21.873Z,78.10
2018-04-13T00:46:48.888Z,78.20
2018-04-13T00:49:15.198Z,78.10
2018-04-13T00:51:41.412Z,78.10
2018-04-13T00:54:07.609Z,78.10
2018-04-13T00:56:34.567Z,78.50
2018-04-13T00:59:00.781Z,78.50
2018-04-13T01:01:27.820Z,78.60
2018-04-13T01:03:54.919Z,78.40
2018-04-13T01:06:21.201Z,78.40
2018-04-13T01:08:47.483Z,78.60
2018-04-13T01:11:14.412Z,78.70
2018-04-13T01:13:40.651Z,78.60
2018-04-13T01:16:06.912Z,78.90
2018-04-13T01:18:33.128Z,79.10
2018-04-13T01:20:59.404Z,79.10
2018-04-13T01:23:25.633Z,79.20
2018-04-13T01:25:51.958Z,79.40
2018-04-13T01:28:18.933Z,79.50
2018-04-13T01:30:45.120Z,79.40
2018-04-13T01:33:11.352Z,79.50
2018-04-13T01:35:38.280Z,79.80
2018-04-13T01:38:05.217Z,80.10
2018-04-13T01:40:32.184Z,80.30
2018-04-13T01:42:59.225Z,80.10
2018-04-13T01:45:25.620Z,80.10
2018-04-13T01:47:51.872Z,80.10
2018-04-13T01:50:18.142Z,80.00
2018-04-13T01:52:44.504Z,80.10
2018-04-13T01:55:10.765Z,80.00
2018-04-13T01:57:37.706Z,80.20
2018-04-13T02:00:04.016Z,80.00
2018-04-13T02:02:30.277Z,80.20
2018-04-13T02:04:56.633Z,80.20
2018-04-13T02:07:22.857Z,80.20
2018-04-13T02:09:49.086Z,80.30
2018-04-13T02:12:15.291Z,80.30
2018-04-13T02:14:42.272Z,80.70
2018-04-13T02:17:08.572Z,80.60
2018-04-13T02:19:34.893Z,80.80
2018-04-13T02:22:01.889Z,81.40
2018-04-13T02:24:28.857Z,80.90
2018-04-13T02:26:55.343Z,80.90
2018-04-13T02:29:21.615Z,80.90
2018-04-13T02:31:47.814Z,81.00
2018-04-13T02:34:14.034Z,81.00
2018-04-13T02:36:40.221Z,81.10
2018-04-13T02:39:06.448Z,81.20
2018-04-13T02:41:32.810Z,81.10
2018-04-13T02:43:59.905Z,81.20
2018-04-13T02:46:26.107Z,81.20
2018-04-13T02:48:52.335Z,81.30
2018-04-13T02:51:18.518Z,81.20
2018-04-13T02:53:45.534Z,81.60
2018-04-13T02:56:11.903Z,81.60
2018-04-13T02:58:38.228Z,81.70
2018-04-13T03:01:04.476Z,81.80
2018-04-13T03:03:30.697Z,81.70
2018-04-13T03:05:56.996Z,81.90
2018-04-13T03:08:24.272Z,83.10
2018-04-13T03:10:50.485Z,83.00
2018-04-13T03:13:17.516Z,82.90
2018-04-13T03:15:43.767Z,82.80
2018-04-13T03:18:10.085Z,82.90
2018-04-13T03:20:37.186Z,82.80
2018-04-13T03:23:03.413Z,82.70
2018-04-13T03:25:29.633Z,82.90
2018-04-13T03:27:55.833Z,83.10
2018-04-13T03:30:22.044Z,83.20
2018-04-13T03:32:49.000Z,83.60
2018-04-13T03:35:15.980Z,83.60
2018-04-13T03:37:42.191Z,83.50
2018-04-13T03:40:08.408Z,83.50
2018-04-13T03:42:34.681Z,83.50
2018-04-13T03:45:00.937Z,83.40
2018-04-13T03:47:27.917Z,83.70
2018-04-13T03:49:54.160Z,83.60
2018-04-13T03:52:20.561Z,83.40
2018-04-13T03:54:46.855Z,83.40
2018-04-13T03:57:13.829Z,83.40
2018-04-13T03:59:40.095Z,83.30
2018-04-13T04:02:06.366Z,83.30
2018-04-13T04:04:32.716Z,83.40
2018-04-13T04:06:59.667Z,83.40
2018-04-13T04:09:26.667Z,83.40
2018-04-13T04:11:52.894Z,83.20
2018-04-13T04:14:19.164Z,83.40
2018-04-13T04:16:45.444Z,83.40
2018-04-13T04:19:11.681Z,83.40
2018-04-13T04:21:50.163Z,83.30
2018-04-13T04:24:28.858Z,83.40
2018-04-13T04:26:55.881Z,83.30
2018-04-13T04:29:22.272Z,83.30
2018-04-13T04:31:48.501Z,83.50
2018-04-13T04:34:14.767Z,84.10
2018-04-13T04:36:41.744Z,84.70
2018-04-13T04:39:08.053Z,84.70
2018-04-13T04:41:35.099Z,85.00
2018-04-13T04:44:02.081Z,85.10
2018-04-13T04:46:28.328Z,85.00
2018-04-13T04:48:55.643Z,85.00
2018-04-13T04:51:22.059Z,85.10
2018-04-13T04:53:49.077Z,85.10
2018-04-13T04:56:15.298Z,85.00
2018-04-13T04:58:41.545Z,85.00
2018-04-13T05:01:07.748Z,84.80
2018-04-13T05:03:34.009Z,84.90
2018-04-13T05:06:01.056Z,85.00
2018-04-13T05:08:27.532Z,85.00
2018-04-13T05:10:53.997Z,85.70
2018-04-13T05:13:20.326Z,86.40
2018-04-13T05:15:46.561Z,86.70
2018-04-13T05:18:12.812Z,85.70
2018-04-13T05:20:39.781Z,85.90
2018-04-13T05:23:06.843Z,86.00
2018-04-13T05:25:33.164Z,86.00
2018-04-13T05:27:59.506Z,86.30
2018-04-13T05:30:25.780Z,86.60
2018-04-13T05:32:51.992Z,86.90
2018-04-13T05:35:18.292Z,87.30
2018-04-13T05:37:45.234Z,87.90
2018-04-13T05:40:11.594Z,87.90
2018-04-13T05:42:37.895Z,88.10
2018-04-13T05:45:04.195Z,88.40
2018-04-13T05:47:31.158Z,88.70
2018-04-13T05:49:57.469Z,88.60
2018-04-13T05:52:23.716Z,88.70
2018-04-13T05:54:50.670Z,88.80
2018-04-13T05:57:16.878Z,88.80
2018-04-13T05:59:43.852Z,88.90
2018-04-13T06:02:10.112Z,88.90
2018-04-13T06:04:36.386Z,89.00
2018-04-13T06:07:02.639Z,89.20
2018-04-13T06:09:28.824Z,88.90
2018-04-13T06:11:55.088Z,88.50
2018-04-13T06:14:21.343Z,87.80
2018-04-13T06:16:47.618Z,87.50
2018-04-13T06:19:14.012Z,87.40
2018-04-13T06:21:41.031Z,87.10
2018-04-13T06:24:10.143Z,87.00
2018-04-13T06:26:36.465Z,86.70
2018-04-13T06:29:02.875Z,86.60
2018-04-13T06:31:29.167Z,86.50
2018-04-13T06:33:55.377Z,86.30
2018-04-13T06:36:21.643Z,86.10
2018-04-13T06:38:48.635Z,85.80
2018-04-13T06:41:14.878Z,85.80
2018-04-13T06:43:41.226Z,85.70
2018-04-13T06:46:07.532Z,85.60
2018-04-13T06:48:33.895Z,85.50
2018-04-13T06:51:00.185Z,85.30
2018-04-13T06:53:26.436Z,85.10
2018-04-13T06:55:52.732Z,85.10
2018-04-13T06:58:19.068Z,84.90
2018-04-13T07:00:45.416Z,84.70
2018-04-13T07:03:11.703Z,84.80
2018-04-13T07:05:37.934Z,84.80
2018-04-13T07:08:04.193Z,84.80
2018-04-13T07:10:30.424Z,84.60
2018-04-13T07:12:56.647Z,84.50
2018-04-13T07:15:22.879Z,84.30
2018-04-13T07:17:49.416Z,83.90
2018-04-13T07:20:15.704Z,83.60
2018-04-13T07:22:41.924Z,83.10
2018-04-13T07:25:08.130Z,82.80
2018-04-13T07:27:35.118Z,82.20
2018-04-13T07:30:01.385Z,82.10
2018-04-13T07:32:27.643Z,81.70
2018-04-13T07:34:54.119Z,81.40
2018-04-13T07:37:20.940Z,81.30
2018-04-13T07:39:47.330Z,81.00
2018-04-13T07:42:13.413Z,80.90
2018-04-13T07:44:39.948Z,80.40
2018-04-13T07:47:06.171Z,80.50
2018-04-13T07:49:32.448Z,80.70
2018-04-13T07:51:58.713Z,80.80
2018-04-13T07:54:25.781Z,81.00
2018-04-13T07:56:52.018Z,80.90
2018-04-13T07:59:18.272Z,80.90
2018-04-13T08:01:44.507Z,80.80
2018-04-13T08:04:10.742Z,80.50
2018-04-13T08:06:37.736Z,80.10
2018-04-13T08:09:04.992Z,80.80
2018-04-13T08:11:31.254Z,80.10
2018-04-13T08:13:57.604Z,79.70
2018-04-13T08:16:24.074Z,79.10
2018-04-13T08:18:50.324Z,79.00
2018-04-13T08:21:17.298Z,77.70
2018-04-13T08:23:44.268Z,77.30
2018-04-13T08:26:11.222Z,77.20
2018-04-13T08:28:37.469Z,77.10
2018-04-13T08:31:03.734Z,77.40
2018-04-13T08:33:30.707Z,78.10
2018-04-13T08:35:56.947Z,78.10
2018-04-13T08:38:23.223Z,78.40
2018-04-13T08:40:49.508Z,78.40
2018-04-13T08:43:15.825Z,78.30
2018-04-13T08:45:42.088Z,78.20
2018-04-13T08:48:09.129Z,78.20
2018-04-13T08:50:35.442Z,78.20
2018-04-13T08:53:01.690Z,78.10
2018-04-13T08:55:27.965Z,77.80
2018-04-13T08:57:54.173Z,77.30
2018-04-13T09:00:20.393Z,77.10
2018-04-13T09:02:46.652Z,76.80
2018-04-13T09:05:12.873Z,76.70
2018-04-13T09:07:39.858Z,76.10
2018-04-13T09:10:06.184Z,75.90
2018-04-13T09:12:33.327Z,75.10
2018-04-13T09:15:00.269Z,74.30
2018-04-13T09:17:27.237Z,73.00
2018-04-13T09:19:53.487Z,72.90
2018-04-13T09:22:19.725Z,71.40
2018-04-13T09:24:45.956Z,71.20
2018-04-13T09:27:12.280Z,69.90
2018-04-13T09:29:38.519Z,67.70
2018-04-13T09:32:04.758Z,65.30
2018-04-13T09:34:31.020Z,63.10
2018-04-13T09:36:57.265Z,61.80
2018-04-13T09:39:24.176Z,60.80
2018-04-13T09:41:51.200Z,58.20
2018-04-13T09:44:17.484Z,58.10
2018-04-13T09:46:43.764Z,58.00
2018-04-13T09:49:10.176Z,58.20
2018-04-13T09:51:36.388Z,58.50
2018-04-13T09:54:02.713Z,58.60
2018-04-13T09:56:29.009Z,58.30
2018-04-13T09:58:55.234Z,58.50
2018-04-13T10:01:21.643Z,59.00
2018-04-13T10:03:48.896Z,59.00
2018-04-13T10:06:15.945Z,59.30
2018-04-13T10:08:42.184Z,59.30
2018-04-13T10:11:09.157Z,59.20
2018-04-13T10:13:35.365Z,59.20
2018-04-13T10:16:01.615Z,59.40
2018-04-13T10:18:27.872Z,60.00
2018-04-13T10:20:54.162Z,60.30
2018-04-13T10:23:20.412Z,60.50
2018-04-13T10:25:46.652Z,60.90
2018-04-13T10:28:12.916Z,60.30
2018-04-13T10:30:39.177Z,59.70
2018-04-13T10:33:05.410Z,59.90
2018-04-13T10:35:31.629Z,60.10
2018-04-13T10:37:57.843Z,59.90
2018-04-13T10:40:24.873Z,60.00
2018-04-13T10:42:51.347Z,59.90
2018-04-13T10:45:17.566Z,59.60
2018-04-13T10:47:43.860Z,59.40
2018-04-13T10:50:10.837Z,60.40
2018-04-13T10:52:37.074Z,59.70
2018-04-13T10:55:03.300Z,59.90
2018-04-13T10:57:29.559Z,60.00
2018-04-13T10:59:55.895Z,60.00
2018-04-13T11:02:22.193Z,59.70
2018-04-13T11:04:48.396Z,59.40
2018-04-13T11:07:15.364Z,59.40
2018-04-13T11:09:41.608Z,59.30
2018-04-13T11:12:07.837Z,59.30
2018-04-13T11:14:34.872Z,58.70
2018-04-13T11:17:01.150Z,58.70
2018-04-13T11:19:27.434Z,58.70
2018-04-13T11:21:53.672Z,58.70
2018-04-13T11:24:19.956Z,58.50
2018-04-13T11:26:46.908Z,58.10
2018-04-13T11:29:13.222Z,58.10
2018-04-13T11:31:39.572Z,58.20
2018-04-13T11:34:05.964Z,58.30
2018-04-13T11:36:33.000Z,58.30
2018-04-13T11:38:59.265Z,58.20
2018-04-13T11:41:25.512Z,57.90
2018-04-13T11:43:51.720Z,58.10
2018-04-13T11:46:17.948Z,58.10
2018-04-13T11:48:44.929Z,58.30
2018-04-13T11:51:11.164Z,58.20
2018-04-13T11:53:37.477Z,58.90
2018-04-13T11:56:03.767Z,58.50
2018-04-13T11:58:30.843Z,58.30
2018-04-13T12:00:57.065Z,58.00
2018-04-13T12:03:23.252Z,57.90
2018-04-13T12:05:49.557Z,57.50
2018-04-13T12:08:15.911Z,57.50
2018-04-13T12:10:43.721Z,57.20
2018-04-13T12:13:09.973Z,57.20
2018-04-13T12:15:37.137Z,56.60
2018-04-13T12:18:03.400Z,56.60
2018-04-13T12:20:30.368Z,56.60
2018-04-13T12:22:56.685Z,56.50
2018-04-13T12:25:23.844Z,56.30
2018-04-13T12:27:50.149Z,56.20
2018-04-13T12:30:16.520Z,56.20
2018-04-13T12:32:42.822Z,56.30
2018-04-13T12:35:09.200Z,56.10
2018-04-13T12:37:35.462Z,56.10
2018-04-13T12:40:01.735Z,55.90
2018-04-13T12:42:27.931Z,56.10
2018-04-13T12:44:54.166Z,56.10
2018-04-13T12:47:21.140Z,56.40
2018-04-13T12:49:47.369Z,56.40
2018-04-13T12:52:13.616Z,56.90
2018-04-13T12:54:40.011Z,57.00
2018-04-13T12:57:06.185Z,56.60
2018-04-13T12:59:32.463Z,56.30
2018-04-13T13:01:58.721Z,56.10
2018-04-13T13:04:24.978Z,56.20
2018-04-13T13:06:51.216Z,56.40
2018-04-13T13:09:17.537Z,56.60
2018-04-13T13:11:44.554Z,56.30
2018-04-13T13:14:10.829Z,56.30
2018-04-13T13:16:37.789Z,56.30
2018-04-13T13:19:04.055Z,56.20
2018-04-13T13:21:31.631Z,57.00
2018-04-13T13:23:57.885Z,57.00
2018-04-13T13:26:24.177Z,57.00
2018-04-13T13:28:50.638Z,56.70
2018-04-13T13:31:17.968Z,56.00
2018-04-13T13:33:44.437Z,55.90
2018-04-13T13:36:10.682Z,55.90
2018-04-13T13:38:37.090Z,55.60
2018-04-13T13:41:03.351Z,55.90
2018-04-13T13:43:29.708Z,56.20
2018-04-13T13:45:56.097Z,56.00
2018-04-13T13:48:22.453Z,55.80
2018-04-13T13:50:48.749Z,55.90
2018-04-13T13:53:15.569Z,56.20
2018-04-13T13:55:42.691Z,56.20
2018-04-13T13:58:08.919Z,56.70
2018-04-13T14:00:35.169Z,55.90
2018-04-13T14:03:01.494Z,55.70
2018-04-13T14:05:27.791Z,55.20
2018-04-13T14:07:54.219Z,55.00
2018-04-13T14:10:20.466Z,54.80
2018-04-13T14:12:46.690Z,54.80
2018-04-13T14:15:12.954Z,54.70
2018-04-13T14:17:39.259Z,55.20
2018-04-13T14:20:05.506Z,55.50
2018-04-13T14:22:31.781Z,55.40
2018-04-13T14:24:58.806Z,55.30
2018-04-13T14:27:25.043Z,55.20
2018-04-13T14:29:52.015Z,54.90
2018-04-13T14:32:18.244Z,54.90
2018-04-13T14:34:44.458Z,55.50
2018-04-13T14:37:11.500Z,56.10
2018-04-13T14:39:38.520Z,56.20
2018-04-13T14:42:04.919Z,56.10
2018-04-13T14:44:31.253Z,56.00
2018-04-13T14:46:57.478Z,55.90
2018-04-13T14:49:23.713Z,55.80
2018-04-13T14:51:49.932Z,56.00
2018-04-13T14:54:16.281Z,56.10
2018-04-13T14:56:42.517Z,56.00
2018-04-13T14:59:08.737Z,56.10
2018-04-13T15:01:35.012Z,55.90
2018-04-13T15:04:01.300Z,55.70
2018-04-13T15:06:27.521Z,55.90
2018-04-13T15:08:54.525Z,56.90
2018-04-13T15:11:20.753Z,56.90
2018-04-13T15:13:47.080Z,56.80
2018-04-13T15:16:13.364Z,56.90
2018-04-13T15:18:39.709Z,57.30
2018-04-13T15:21:06.024Z,57.20
2018-04-13T15:23:32.292Z,57.10
2018-04-13T15:25:58.497Z,57.10
2018-04-13T15:28:25.657Z,57.20
2018-04-13T15:30:51.865Z,57.10
2018-04-13T15:33:18.138Z,57.20
2018-04-13T15:35:44.341Z,57.00
2018-04-13T15:38:10.658Z,57.20
2018-04-13T15:40:37.638Z,57.30
2018-04-13T15:43:03.879Z,57.20
2018-04-13T15:45:30.119Z,57.20
2018-04-13T15:47:56.389Z,57.50
2018-04-13T15:50:23.481Z,57.90
2018-04-13T15:52:49.706Z,57.90
2018-04-13T15:55:15.983Z,58.20
2018-04-13T15:57:43.068Z,58.70
2018-04-13T16:00:09.380Z,58.60
2018-04-13T16:02:36.350Z,59.20
2018-04-13T16:05:02.650Z,59.10
2018-04-13T16:07:29.643Z,59.20
2018-04-13T16:09:55.961Z,59.20
2018-04-13T16:12:22.415Z,59.20
2018-04-13T16:14:48.709Z,59.40
2018-04-13T16:17:15.095Z,59.50
2018-04-13T16:19:42.113Z,59.40
2018-04-13T16:22:08.383Z,59.30
2018-04-13T16:24:35.380Z,59.40
2018-04-13T16:27:01.618Z,59.30
2018-04-13T16:29:27.840Z,59.50
2018-04-13T16:31:54.056Z,59.40
2018-04-13T16:34:20.366Z,59.60
2018-04-13T16:36:46.596Z,59.90
2018-04-13T16:39:12.824Z,60.20
2018-04-13T16:41:39.095Z,60.00
2018-04-13T16:44:05.412Z,60.20
2018-04-13T16:46:31.652Z,60.10
2018-04-13T16:48:57.877Z,60.20
2018-04-13T16:51:24.138Z,60.20
2018-04-13T16:53:50.671Z,60.00
2018-04-13T16:56:17.693Z,60.20
2018-04-13T16:58:43.940Z,60.10
2018-04-13T17:01:11.009Z,61.10
2018-04-13T17:03:38.016Z,61.20
2018-04-13T17:06:04.240Z,61.20
2018-04-13T17:08:31.293Z,61.40
2018-04-13T17:10:57.537Z,61.40
2018-04-13T17:13:23.861Z,61.70
2018-04-13T17:15:50.879Z,61.90
2018-04-13T17:18:17.189Z,61.80
2018-04-13T17:20:43.483Z,62.10
2018-04-13T17:23:09.783Z,62.20
2018-04-13T17:25:36.071Z,62.40
2018-04-13T17:28:02.310Z,63.00
2018-04-13T17:30:28.556Z,63.20
2018-04-13T17:32:54.821Z,63.40
2018-04-13T17:35:21.800Z,63.50
2018-04-13T17:37:48.042Z,63.50
2018-04-13T17:40:14.297Z,63.40
2018-04-13T17:42:40.526Z,63.70
2018-04-13T17:45:06.979Z,64.10
2018-04-13T17:47:33.542Z,64.60
2018-04-13T17:50:00.004Z,64.40
2018-04-13T17:52:26.472Z,64.40
2018-04-13T17:54:54.653Z,64.40
2018-04-13T17:57:20.900Z,65.00
2018-04-13T17:59:47.147Z,65.60
2018-04-13T18:02:13.397Z,65.50
2018-04-13T18:04:39.868Z,65.20
2018-04-13T18:07:06.599Z,65.30
2018-04-13T18:09:33.066Z,65.20
2018-04-13T18:11:59.358Z,65.20
2018-04-13T18:14:25.660Z,65.20
2018-04-13T18:16:51.883Z,65.30
2018-04-13T18:19:18.103Z,65.40
2018-04-13T18:21:44.376Z,65.40
2018-04-13T18:24:10.709Z,65.70
2018-04-13T18:26:37.161Z,65.80
2018-04-13T18:29:03.425Z,65.80
2018-04-13T18:31:29.679Z,65.80
2018-04-13T18:33:55.912Z,66.00
2018-04-13T18:36:22.954Z,65.70
2018-04-13T18:38:49.193Z,65.70
2018-04-13T18:41:15.525Z,66.10
2018-04-13T18:43:42.581Z,66.30
2018-04-13T18:46:08.922Z,66.30
2018-04-13T18:48:35.222Z,66.40
2018-04-13T18:51:01.432Z,66.50
2018-04-13T18:53:27.664Z,66.60
2018-04-13T18:55:53.918Z,67.00
2018-04-13T18:58:20.253Z,67.70
2018-04-13T19:00:46.608Z,67.90
2018-04-13T19:03:13.045Z,68.50
2018-04-13T19:05:39.300Z,68.80
2018-04-13T19:08:05.632Z,69.30
2018-04-13T19:10:31.849Z,69.60
2018-04-13T19:12:58.117Z,69.80
2018-04-13T19:15:24.355Z,70.10
2018-04-13T19:17:50.793Z,70.30
2018-04-13T19:20:17.198Z,70.60
2018-04-13T19:22:43.489Z,71.00
2018-04-13T19:25:09.792Z,71.00
2018-04-13T19:27:36.029Z,70.40
2018-04-13T19:30:03.030Z,70.30
2018-04-13T19:32:29.417Z,70.30
2018-04-13T19:34:55.667Z,70.30
2018-04-13T19:37:22.871Z,69.90
2018-04-13T19:39:49.944Z,69.50
2018-04-13T19:42:16.237Z,69.30
2018-04-13T19:44:42.445Z,69.50
2018-04-13T19:47:08.688Z,69.80
2018-04-13T19:49:34.919Z,69.80
2018-04-13T19:52:01.227Z,69.70
2018-04-13T19:54:27.478Z,69.70
2018-04-13T19:56:53.761Z,69.30
2018-04-13T19:59:20.021Z,69.30
2018-04-13T20:01:46.266Z,69.30
2018-04-13T20:04:12.543Z,70.20
2018-04-13T20:06:38.780Z,69.60
2018-04-13T20:09:05.063Z,69.60
2018-04-13T20:11:31.288Z,69.60
2018-04-13T20:13:57.622Z,69.60
2018-04-13T20:16:24.136Z,69.60
2018-04-13T20:18:50.369Z,69.40
2018-04-13T20:21:16.659Z,69.90
2018-04-13T20:23:42.930Z,70.10
2018-04-13T20:26:09.200Z,70.20
2018-04-13T20:28:35.724Z,70.70
2018-04-13T20:31:02.034Z,70.80
2018-04-13T20:33:28.351Z,70.80
2018-04-13T20:35:54.651Z,70.90
2018-04-13T20:38:21.044Z,71.00
2018-04-13T20:40:47.266Z,71.20
2018-04-13T20:43:14.260Z,71.30
2018-04-13T20:45:40.515Z,71.30
2018-04-13T20:48:07.009Z,71.20
2018-04-13T20:50:33.317Z,71.50
2018-04-13T20:52:59.666Z,71.30
2018-04-13T20:55:25.963Z,71.40
2018-04-13T20:57:52.938Z,71.00
2018-04-13T21:00:19.182Z,71.00
2018-04-13T21:02:45.413Z,71.00
2018-04-13T21:05:11.644Z,71.00
2018-04-13T21:07:37.970Z,70.80
2018-04-13T21:10:04.319Z,70.90
2018-04-13T21:12:30.647Z,71.00
2018-04-13T21:14:56.927Z,71.40
2018-04-13T21:17:23.176Z,71.80
2018-04-13T21:19:49.441Z,72.10
2018-04-13T21:22:15.724Z,72.30
2018-04-13T21:24:42.025Z,72.30
2018-04-13T21:27:08.283Z,72.70
2018-04-13T21:29:34.539Z,72.70
2018-04-13T21:32:00.786Z,73.00
2018-04-13T21:34:27.784Z,73.40
2018-04-13T21:36:54.068Z,73.30
2018-04-13T21:39:20.492Z,73.60
2018-04-13T21:41:46.748Z,73.70
2018-04-13T21:44:13.897Z,73.90
2018-04-13T21:46:40.317Z,73.90
2018-04-13T21:49:06.607Z,73.90
2018-04-13T21:51:32.857Z,73.90
2018-04-13T21:53:59.080Z,74.10
2018-04-13T21:56:25.309Z,74.10
2018-04-13T21:58:52.452Z,74.60
2018-04-13T22:01:18.693Z,74.40
2018-04-13T22:03:45.054Z,74.40
2018-04-13T22:06:11.424Z,74.60
2018-04-13T22:08:37.665Z,74.60
2018-04-13T22:11:03.918Z,74.70
2018-04-13T22:13:30.185Z,74.80
2018-04-13T22:15:56.431Z,75.50
2018-04-13T22:18:22.821Z,74.80
2018-04-13T22:20:49.912Z,75.40
2018-04-13T22:23:16.297Z,75.40
2018-04-13T22:25:42.555Z,75.40
2018-04-13T22:28:08.771Z,75.60
2018-04-13T22:30:35.724Z,75.90
2018-04-13T22:33:01.948Z,75.80
2018-04-13T22:35:28.182Z,76.00
2018-04-13T22:37:54.432Z,76.10
2018-04-13T22:40:20.706Z,76.40
2018-04-13T22:42:47.726Z,76.70
2018-04-13T22:45:13.989Z,76.50
2018-04-13T22:47:40.249Z,76.70
2018-04-13T22:50:06.473Z,76.70
2018-04-13T22:52:32.736Z,76.70
2018-04-13T22:55:06.005Z,76.70
2018-04-13T22:57:32.305Z,76.60
2018-04-13T22:59:59.260Z,76.60
2018-04-13T23:02:25.525Z,76.60
2018-04-13T23:04:51.785Z,76.60
2018-04-13T23:07:18.869Z,77.10
2018-04-13T23:09:45.096Z,76.90
2018-04-13T23:12:11.318Z,77.00
2018-04-13T23:14:37.550Z,77.00
2018-04-13T23:17:03.776Z,77.20
2018-04-13T23:19:30.134Z,77.50
2018-04-13T23:21:56.390Z,77.40
2018-04-13T23:24:22.730Z,77.60
2018-04-13T23:26:49.733Z,77.70
2018-04-13T23:29:16.068Z,77.70
2018-04-13T23:31:42.372Z,77.70
2018-04-13T23:34:08.592Z,77.90
2018-04-13T23:36:34.840Z,77.80
2018-04-13T23:39:01.121Z,77.90
2018-04-13T23:41:28.214Z,78.00
2018-04-13T23:43:54.458Z,78.00
2018-04-13T23:46:20.677Z,78.10
2018-04-13T23:48:46.918Z,78.20
2018-04-13T23:51:13.144Z,78.30
2018-04-13T23:53:39.433Z,78.40
2018-04-13T23:56:05.688Z,78.30
2018-04-13T23:58:31.952Z,78.40
